Time;durP1;ratioP1;P1;durP2;ratioP2;P2;SDS_P1;SDS_P2;PMS_P1;PMS_P2;Temp;Humidity;BMP_temperature;BMP_pressure;BME280_temperature;BME280_humidity;BME280_pressure;Samples;Min_cycle;Max_cycle;Signal;HPM_P1;HPM_P2
2022/03/31 00:00:26;;;;;;;35.72;19.50;;;;;;;3.32;86.07;96810.13;2628032;28;20044;-77
2022/03/31 00:01:52;;;;;;;33.13;18.45;;;;;;;3.29;86.00;96807.63;2627542;28;20113;-77
2022/03/31 00:03:10;;;;;;;33.83;17.30;;;;;;;3.34;86.05;96808.34;2628102;28;20056;-77
2022/03/31 00:04:26;;;;;;;35.30;18.92;;;;;;;3.31;85.97;96813.63;2627381;28;20066;-77
2022/03/31 00:05:42;;;;;;;34.10;17.92;;;;;;;3.28;86.37;96811.09;2627536;28;20521;-78
2022/03/31 00:06:57;;;;;;;37.25;18.40;;;;;;;3.21;86.45;96813.00;2627592;28;20052;-77
2022/03/31 00:08:15;;;;;;;34.55;17.25;;;;;;;3.28;86.22;96816.25;2627395;28;20135;-77
2022/03/31 00:09:31;;;;;;;34.20;18.63;;;;;;;3.19;86.57;96812.16;2627668;28;20150;-77
2022/03/31 00:10:49;;;;;;;37.00;19.17;;;;;;;3.21;86.41;96813.00;2627155;28;20068;-77
2022/03/31 00:12:05;;;;;;;34.38;18.10;;;;;;;3.33;85.63;96809.25;2627552;28;20563;-77
2022/03/31 00:13:25;;;;;;;40.88;20.15;;;;;;;3.32;86.09;96812.72;2626814;28;20514;-78
2022/03/31 00:14:40;;;;;;;36.25;20.25;;;;;;;3.27;86.20;96811.13;2627410;28;20075;-77
2022/03/31 00:15:58;;;;;;;34.17;19.42;;;;;;;3.24;86.47;96812.06;2627074;28;20486;-77
2022/03/31 00:17:14;;;;;;;36.22;18.90;;;;;;;3.22;86.45;96808.66;2627704;28;20048;-77
2022/03/31 00:18:31;;;;;;;38.80;20.15;;;;;;;3.23;86.27;96806.06;2627597;28;20102;-77
2022/03/31 00:19:46;;;;;;;34.90;19.30;;;;;;;3.23;86.90;96805.19;2627873;28;20095;-77
2022/03/31 00:21:02;;;;;;;34.83;18.10;;;;;;;3.23;86.59;96811.22;2627159;28;20054;-77
2022/03/31 00:22:17;;;;;;;34.72;18.80;;;;;;;3.24;86.33;96807.75;2627266;28;20048;-80
2022/03/31 00:23:36;;;;;;;35.58;18.90;;;;;;;3.23;86.84;96807.78;2627327;28;20451;-77
2022/03/31 00:24:52;;;;;;;34.80;18.88;;;;;;;3.20;86.88;96810.44;2627796;28;20052;-77
2022/03/31 00:26:08;;;;;;;33.45;17.67;;;;;;;3.24;86.40;96812.91;2627880;28;20059;-77
2022/03/31 00:27:24;;;;;;;39.35;20.35;;;;;;;3.19;85.99;96806.16;2627732;28;20052;-78
2022/03/31 00:28:40;;;;;;;36.80;18.35;;;;;;;3.16;86.58;96812.25;2627571;28;20494;-76
2022/03/31 00:29:55;;;;;;;39.13;19.58;;;;;;;3.17;86.76;96808.78;2627005;28;20098;-77
2022/03/31 00:31:11;;;;;;;38.95;18.45;;;;;;;3.16;87.19;96809.66;2627405;28;20428;-77
2022/03/31 00:32:26;;;;;;;38.28;18.30;;;;;;;3.15;86.85;96804.53;2626591;28;20052;-77
2022/03/31 00:33:42;;;;;;;38.33;19.67;;;;;;;3.11;86.83;96809.75;2627683;28;20060;-78
2022/03/31 00:34:57;;;;;;;39.70;19.80;;;;;;;3.09;87.07;96808.13;2627464;28;20446;-78
2022/03/31 00:36:13;;;;;;;38.60;20.00;;;;;;;3.10;87.19;96809.81;2627230;28;20318;-78
2022/03/31 00:37:29;;;;;;;33.90;17.83;;;;;;;3.17;86.63;96805.34;2627559;28;20048;-78
2022/03/31 00:39:28;;;;;;;40.85;19.90;;;;;;;3.19;86.34;96800.97;2627832;28;20056;-77
2022/03/31 00:40:21;;;;;;;38.80;19.90;;;;;;;3.16;86.72;96804.50;2627383;28;20043;-78
2022/03/31 00:41:38;;;;;;;35.20;18.88;;;;;;;3.18;87.31;96800.13;2626741;28;20044;-77
2022/03/31 00:42:57;;;;;;;42.78;20.23;;;;;;;3.13;87.18;96804.56;2627313;28;20488;-78
2022/03/31 00:44:12;;;;;;;39.38;20.00;;;;;;;3.09;87.15;96801.19;2627520;28;20083;-78
2022/03/31 00:45:46;;;;;;;45.00;20.98;;;;;;;3.06;87.43;96803.00;2626845;28;20569;-77
2022/03/31 00:47:02;;;;;;;41.20;19.73;;;;;;;3.00;87.88;96798.84;2627655;28;20051;-78
2022/03/31 00:48:19;;;;;;;39.80;19.65;;;;;;;3.02;88.00;96798.81;2627278;28;20044;-77
2022/03/31 00:49:35;;;;;;;42.75;20.60;;;;;;;3.00;87.94;96793.66;2627318;28;20091;-77
2022/03/31 00:50:51;;;;;;;41.22;21.60;;;;;;;3.00;88.33;96792.81;2627227;28;20479;-77
2022/03/31 00:52:07;;;;;;;41.33;20.52;;;;;;;3.01;88.11;96792.81;2626815;28;20097;-77
2022/03/31 00:53:23;;;;;;;38.22;20.38;;;;;;;3.09;87.83;96793.44;2626231;28;20479;-78
2022/03/31 00:54:40;;;;;;;42.15;20.48;;;;;;;3.11;87.42;96790.84;2626807;28;20219;-77
2022/03/31 00:55:58;;;;;;;40.08;20.30;;;;;;;3.06;87.85;96797.84;2626952;28;20051;-81
2022/03/31 00:57:15;;;;;;;44.72;20.63;;;;;;;3.05;87.88;96793.56;2627273;28;20048;-77
2022/03/31 00:58:31;;;;;;;40.60;19.70;;;;;;;3.07;88.15;96794.38;2627370;28;20482;-77
2022/03/31 00:59:47;;;;;;;39.40;20.73;;;;;;;2.99;87.67;96793.72;2627246;28;20542;-77
2022/03/31 01:01:03;;;;;;;43.72;22.33;;;;;;;3.00;87.87;96801.41;2627561;28;20044;-79
2022/03/31 01:02:19;;;;;;;40.67;20.20;;;;;;;2.99;88.49;96797.13;2627213;28;20455;-77
2022/03/31 01:03:35;;;;;;;44.72;21.38;;;;;;;3.02;87.80;96796.22;2627248;28;20083;-77
2022/03/31 01:04:51;;;;;;;38.65;20.00;;;;;;;3.05;87.96;96796.13;2626605;28;20079;-77
2022/03/31 01:06:07;;;;;;;39.05;20.08;;;;;;;3.07;87.76;96795.22;2627452;28;20083;-78
2022/03/31 01:07:22;;;;;;;38.33;19.58;;;;;;;3.07;88.10;96792.63;2627178;28;20075;-78
2022/03/31 01:08:38;;;;;;;41.25;20.25;;;;;;;3.05;88.10;96793.56;2627861;28;20044;-78
2022/03/31 01:09:56;;;;;;;37.65;19.17;;;;;;;3.06;87.59;96790.09;2627141;28;20059;-81
2022/03/31 01:11:12;;;;;;;35.78;18.92;;;;;;;3.01;87.48;96791.94;2626958;28;20376;-78
2022/03/31 01:12:27;;;;;;;42.53;20.60;;;;;;;2.99;87.65;96791.97;2626910;28;20339;-80
2022/03/31 01:13:43;;;;;;;41.17;21.08;;;;;;;2.96;87.63;96787.75;2627126;28;20056;-79
2022/03/31 01:15:14;;;;;;;42.53;20.27;;;;;;;2.93;87.79;96784.38;2626946;28;20044;-78
2022/03/31 01:16:30;;;;;;;41.08;19.65;;;;;;;2.93;87.94;96787.81;2626904;28;20108;-77
2022/03/31 01:17:48;;;;;;;42.10;20.38;;;;;;;2.92;87.82;96786.09;2626998;28;20098;-80
2022/03/31 01:19:09;;;;;;;39.17;19.13;;;;;;;2.91;88.03;96786.16;2626889;28;20047;-78
2022/03/31 01:20:25;;;;;;;41.00;20.63;;;;;;;2.93;87.71;96787.81;2626759;28;20090;-77
2022/03/31 01:21:45;;;;;;;39.65;19.80;;;;;;;2.94;87.37;96786.94;2626694;28;20055;-78
2022/03/31 01:23:01;;;;;;;44.17;20.80;;;;;;;2.95;87.90;96792.94;2626564;28;20457;-78
2022/03/31 01:24:18;;;;;;;44.20;21.38;;;;;;;2.89;87.76;96787.94;2627119;28;20323;-77
2022/03/31 01:25:34;;;;;;;41.35;20.45;;;;;;;2.89;87.83;96786.19;2626691;28;20079;-78
2022/03/31 01:26:49;;;;;;;40.47;20.25;;;;;;;2.91;87.90;96779.22;2626920;28;20058;-78
2022/03/31 01:28:05;;;;;;;40.30;20.45;;;;;;;2.87;88.60;96777.59;2626758;28;20533;-77
2022/03/31 01:29:23;;;;;;;40.60;20.10;;;;;;;2.86;88.18;96777.63;2627245;28;20051;-77
2022/03/31 01:30:39;;;;;;;40.10;20.58;;;;;;;2.92;88.21;96777.50;2626176;28;20044;-78
2022/03/31 01:31:54;;;;;;;40.70;21.10;;;;;;;2.90;88.44;96772.38;2627467;28;20051;-77
2022/03/31 01:33:11;;;;;;;42.13;21.17;;;;;;;2.89;88.61;96777.59;2626695;28;20055;-77
2022/03/31 01:34:26;;;;;;;43.75;20.40;;;;;;;2.88;88.84;96774.13;2627073;28;20098;-77
2022/03/31 01:35:42;;;;;;;43.50;21.00;;;;;;;2.87;88.36;96775.03;2626590;28;20059;-77
2022/03/31 01:36:58;;;;;;;40.20;19.30;;;;;;;2.89;88.38;96770.66;2626883;28;20559;-78
2022/03/31 01:38:13;;;;;;;43.40;21.15;;;;;;;2.91;88.15;96768.06;2626390;28;20189;-80
2022/03/31 01:39:29;;;;;;;40.70;19.80;;;;;;;2.87;88.86;96777.59;2627441;28;20685;-77
2022/03/31 01:40:45;;;;;;;39.20;20.02;;;;;;;2.89;89.03;96770.66;2626995;28;20052;-77
2022/03/31 01:42:01;;;;;;;41.53;21.63;;;;;;;2.87;89.26;96774.19;2627434;28;20054;-77
2022/03/31 01:43:17;;;;;;;40.53;20.25;;;;;;;2.85;89.38;96778.53;2626872;28;20077;-77
2022/03/31 01:44:33;;;;;;;37.70;19.65;;;;;;;2.86;89.20;96786.25;2626765;28;20101;-77
2022/03/31 01:45:49;;;;;;;39.25;20.13;;;;;;;2.88;88.85;96778.47;2626736;28;20047;-77
2022/03/31 01:47:04;;;;;;;39.28;19.70;;;;;;;2.85;88.89;96774.22;2627028;28;20052;-78
2022/03/31 01:48:20;;;;;;;39.25;20.40;;;;;;;2.87;88.97;96776.78;2626842;28;20056;-77
2022/03/31 01:49:37;;;;;;;40.30;19.85;;;;;;;2.88;89.27;96773.31;2626814;28;20054;-78
2022/03/31 01:50:53;;;;;;;40.40;18.15;;;;;;;2.90;89.05;96772.38;2626874;28;21077;-78
2022/03/31 01:52:08;;;;;;;39.95;20.75;;;;;;;2.98;88.86;96769.59;2626753;28;20048;-78
2022/03/31 01:53:24;;;;;;;40.83;19.40;;;;;;;2.99;88.64;96775.63;2626267;28;20525;-77
2022/03/31 01:54:41;;;;;;;40.65;20.65;;;;;;;2.99;88.67;96768.69;2626329;28;20449;-77
2022/03/31 01:55:57;;;;;;;42.30;19.77;;;;;;;3.01;89.29;96773.84;2627158;28;20056;-79
2022/03/31 01:57:13;;;;;;;43.53;21.35;;;;;;;3.02;89.03;96771.22;2626589;28;20218;-78
2022/03/31 01:58:29;;;;;;;44.97;21.55;;;;;;;3.00;89.18;96766.97;2627059;28;20077;-77
2022/03/31 01:59:45;;;;;;;38.63;20.38;;;;;;;3.05;89.20;96767.69;2626768;28;20086;-78
2022/03/31 02:01:01;;;;;;;38.60;19.33;;;;;;;3.14;88.52;96769.19;2626807;28;20040;-77
2022/03/31 02:02:17;;;;;;;38.60;20.05;;;;;;;3.15;88.45;96771.75;2626292;28;20048;-77
2022/03/31 02:03:33;;;;;;;41.25;20.40;;;;;;;3.15;88.19;96774.34;2626783;28;20105;-78
2022/03/31 02:04:49;;;;;;;35.20;18.75;;;;;;;3.14;88.04;96770.06;2628498;28;20552;-77
2022/03/31 02:06:05;;;;;;;35.95;18.50;;;;;;;3.15;87.91;96768.34;2629568;28;20048;-77
2022/03/31 02:07:21;;;;;;;36.78;19.77;;;;;;;3.19;88.10;96765.63;2627972;28;20765;-78
2022/03/31 02:08:36;;;;;;;38.72;19.50;;;;;;;3.17;88.11;96764.81;2628777;28;20044;-84
2022/03/31 02:09:52;;;;;;;36.70;19.50;;;;;;;3.14;88.03;96764.88;2628851;28;20510;-78
2022/03/31 02:11:08;;;;;;;40.88;19.98;;;;;;;3.08;88.19;96765.91;2629318;28;20052;-78
2022/03/31 02:12:24;;;;;;;38.63;19.75;;;;;;;3.08;87.83;96767.66;2628980;28;20109;-78
2022/03/31 02:13:39;;;;;;;40.88;20.10;;;;;;;3.05;87.77;96765.97;2628397;28;20566;-77
2022/03/31 02:14:55;;;;;;;43.40;21.55;;;;;;;3.04;88.07;96763.41;2628885;28;20148;-77
2022/03/31 02:16:11;;;;;;;45.90;21.45;;;;;;;3.01;88.59;96768.66;2629094;28;20059;-78
2022/03/31 02:17:26;;;;;;;41.45;19.95;;;;;;;2.94;88.34;96761.09;2628837;28;20055;-77
2022/03/31 02:18:42;;;;;;;45.67;22.50;;;;;;;2.90;88.44;96756.84;2627986;28;20050;-81
2022/03/31 02:19:57;;;;;;;42.00;20.15;;;;;;;2.91;88.45;96761.13;2629311;28;20113;-77
2022/03/31 02:21:13;;;;;;;42.78;21.40;;;;;;;2.92;88.60;96762.00;2628591;28;20113;-77
2022/03/31 02:22:29;;;;;;;47.03;22.17;;;;;;;2.90;88.75;96758.59;2628475;28;20055;-77
2022/03/31 02:23:45;;;;;;;39.42;20.33;;;;;;;2.90;88.61;96754.25;2628971;28;20059;-78
2022/03/31 02:25:01;;;;;;;47.28;22.42;;;;;;;2.91;88.78;96755.97;2628454;28;20044;-77
2022/03/31 02:26:16;;;;;;;45.83;22.85;;;;;;;2.96;88.34;96750.69;2628990;28;20513;-77
2022/03/31 02:27:32;;;;;;;43.42;20.00;;;;;;;3.01;87.70;96750.56;2628569;28;20048;-81
2022/03/31 02:28:47;;;;;;;40.88;19.42;;;;;;;3.01;87.65;96748.00;2628586;28;20052;-78
2022/03/31 02:30:05;;;;;;;45.70;21.42;;;;;;;3.03;87.90;96752.25;2628806;28;20052;-78
2022/03/31 02:31:21;;;;;;;42.45;21.02;;;;;;;3.02;87.96;96745.38;2628025;28;20055;-77
2022/03/31 02:32:37;;;;;;;43.70;20.60;;;;;;;2.99;88.23;96747.19;2628744;28;20048;-78
2022/03/31 02:33:53;;;;;;;41.13;20.85;;;;;;;3.00;88.18;96747.13;2628664;28;20055;-78
2022/03/31 02:35:08;;;;;;;44.60;19.95;;;;;;;3.06;87.98;96749.56;2628735;28;20044;-77
2022/03/31 02:36:26;;;;;;;44.05;20.23;;;;;;;3.05;87.69;96745.28;2628647;28;20052;-77
2022/03/31 02:37:41;;;;;;;39.20;20.33;;;;;;;3.03;87.62;96746.22;2628910;28;20044;-77
2022/03/31 02:38:57;;;;;;;39.03;19.50;;;;;;;3.07;87.81;96742.66;2628463;28;20048;-77
2022/03/31 02:40:13;;;;;;;37.67;18.88;;;;;;;3.08;87.78;96742.63;2628578;28;20090;-77
2022/03/31 02:41:29;;;;;;;40.80;19.48;;;;;;;3.12;87.71;96748.56;2628687;28;20116;-76
2022/03/31 02:42:44;;;;;;;37.40;17.75;;;;;;;3.20;86.83;96748.38;2628208;28;20044;-77
2022/03/31 02:44:00;;;;;;;38.35;18.73;;;;;;;3.23;86.80;96743.97;2629038;28;20044;-76
2022/03/31 02:45:16;;;;;;;38.30;19.33;;;;;;;3.18;87.23;96747.56;2628485;28;20498;-77
2022/03/31 02:46:32;;;;;;;41.88;20.73;;;;;;;3.13;86.90;96749.41;2628401;28;20056;-77
2022/03/31 02:47:48;;;;;;;41.60;20.00;;;;;;;3.14;87.33;96746.78;2628764;28;20040;-78
2022/03/31 02:49:04;;;;;;;39.35;20.25;;;;;;;3.14;87.56;96744.19;2628556;28;20119;-76
2022/03/31 02:50:19;;;;;;;39.33;19.67;;;;;;;3.15;87.65;96748.47;2628658;28;20048;-76
2022/03/31 02:51:36;;;;;;;37.67;19.38;;;;;;;3.15;87.26;96745.06;2628483;28;20586;-77
2022/03/31 02:56:00;;;;;;;37.35;18.75;;;;;;;3.19;87.30;96741.50;2628792;28;20056;-78
2022/03/31 02:57:18;;;;;;;40.55;19.70;;;;;;;3.14;87.28;96739.03;2628434;28;20048;-77
2022/03/31 02:58:34;;;;;;;37.58;19.70;;;;;;;3.12;87.41;96733.06;2627689;28;20595;-77
2022/03/31 02:59:49;;;;;;;41.35;19.75;;;;;;;3.12;87.52;96730.47;2628507;28;20176;-78
2022/03/31 03:01:05;;;;;;;40.40;19.75;;;;;;;3.10;87.84;96733.09;2627645;28;20052;-77
2022/03/31 03:02:21;;;;;;;39.13;19.90;;;;;;;3.13;87.58;96729.59;2627983;28;20056;-78
2022/03/31 03:03:36;;;;;;;42.47;20.55;;;;;;;3.12;87.82;96730.47;2628266;28;20554;-78
2022/03/31 03:04:52;;;;;;;38.00;19.65;;;;;;;3.15;87.53;96725.22;2628258;28;20552;-77
2022/03/31 03:06:09;;;;;;;39.80;19.48;;;;;;;3.19;87.60;96724.22;2628160;28;20040;-77
2022/03/31 03:07:26;;;;;;;39.65;19.88;;;;;;;3.21;86.66;96732.81;2627381;28;20051;-79
2022/03/31 03:08:42;;;;;;;41.05;21.48;;;;;;;3.18;87.22;96725.13;2626916;28;20040;-79
2022/03/31 03:09:57;;;;;;;37.83;19.92;;;;;;;3.16;87.50;96728.66;2627398;28;20121;-78
2022/03/31 03:11:15;;;;;;;38.78;20.17;;;;;;;3.17;87.45;96723.44;2627078;28;20044;-82
2022/03/31 03:12:31;;;;;;;42.30;20.58;;;;;;;3.17;86.45;96717.44;2627417;28;20137;-78
2022/03/31 03:13:47;;;;;;;41.88;20.92;;;;;;;3.20;86.42;96718.16;2626291;28;20052;-77
2022/03/31 03:15:03;;;;;;;44.05;20.45;;;;;;;3.11;87.03;96719.25;2627019;28;20101;-78
2022/03/31 03:16:19;;;;;;;45.78;22.10;;;;;;;3.15;86.94;96720.03;2626994;28;20071;-78
2022/03/31 03:17:39;;;;;;;38.28;19.77;;;;;;;3.14;86.99;96712.31;2627789;28;20044;-78
2022/03/31 03:18:55;;;;;;;42.08;20.65;;;;;;;3.16;87.06;96718.31;2627879;28;20048;-78
2022/03/31 03:20:13;;;;;;;45.85;21.08;;;;;;;3.11;87.31;96719.25;2627478;28;20055;-79
2022/03/31 03:21:28;;;;;;;48.63;21.90;;;;;;;3.05;87.44;96716.84;2627139;28;20347;-78
2022/03/31 03:22:49;;;;;;;43.28;21.63;;;;;;;3.04;87.85;96722.06;2626083;28;20059;-77
2022/03/31 03:24:05;;;;;;;47.08;21.67;;;;;;;3.04;88.29;96716.88;2626954;28;20052;-77
2022/03/31 03:25:23;;;;;;;41.83;22.13;;;;;;;3.07;87.22;96717.66;2627064;28;20071;-78
2022/03/31 03:26:38;;;;;;;48.13;22.08;;;;;;;3.07;87.67;96720.25;2627773;28;20056;-78
2022/03/31 03:27:54;;;;;;;41.60;20.65;;;;;;;3.03;87.83;96715.19;2627704;28;20478;-78
2022/03/31 03:29:09;;;;;;;46.40;22.15;;;;;;;3.05;87.93;96723.75;2627690;28;20055;-78
2022/03/31 03:30:25;;;;;;;42.42;21.20;;;;;;;3.02;88.14;96718.66;2627685;28;20047;-78
2022/03/31 03:31:40;;;;;;;40.28;20.10;;;;;;;3.06;87.56;96720.28;2627700;28;20047;-78
2022/03/31 03:32:56;;;;;;;44.20;20.80;;;;;;;3.06;87.89;96715.09;2624078;28;20052;-77
2022/03/31 03:34:13;;;;;;;40.92;19.88;;;;;;;3.06;87.42;96709.94;2627311;28;20052;-78
2022/03/31 03:35:29;;;;;;;43.08;19.98;;;;;;;3.01;87.58;96706.63;2627408;28;20051;-78
2022/03/31 03:36:44;;;;;;;41.13;19.63;;;;;;;2.95;87.83;96703.31;2626775;28;20059;-80
2022/03/31 03:38:00;;;;;;;41.63;20.20;;;;;;;2.99;87.86;96713.56;2628146;28;20547;-77
2022/03/31 03:39:16;;;;;;;39.35;19.77;;;;;;;2.99;87.77;96711.00;2627018;28;20048;-77
2022/03/31 03:40:31;;;;;;;37.97;18.90;;;;;;;2.91;87.75;96704.25;2626994;28;20445;-77
2022/03/31 03:41:47;;;;;;;40.33;19.65;;;;;;;2.92;87.64;96702.53;2627385;28;20063;-77
2022/03/31 03:43:03;;;;;;;39.17;19.80;;;;;;;2.91;87.73;96699.09;2627651;28;20411;-78
2022/03/31 03:44:18;;;;;;;39.42;18.83;;;;;;;2.87;87.87;96694.91;2627091;28;20067;-77
2022/03/31 03:45:34;;;;;;;37.30;18.98;;;;;;;2.95;87.66;96705.91;2627558;28;20040;-77
2022/03/31 03:46:49;;;;;;;35.30;18.05;;;;;;;2.92;87.47;96698.19;2627788;28;20379;-78
2022/03/31 03:48:07;;;;;;;35.17;18.95;;;;;;;2.90;87.44;96709.50;2627301;28;20100;-77
2022/03/31 03:49:22;;;;;;;40.47;19.77;;;;;;;2.92;87.54;96707.72;2627442;28;20048;-78
2022/03/31 03:50:38;;;;;;;36.65;19.25;;;;;;;2.88;87.79;96703.50;2627762;28;20048;-78
2022/03/31 03:51:53;;;;;;;38.33;19.42;;;;;;;2.86;88.17;96703.53;2627149;28;20090;-78
2022/03/31 03:53:09;;;;;;;38.72;19.05;;;;;;;2.85;88.24;96701.84;2627421;28;20048;-77
2022/03/31 03:54:26;;;;;;;37.45;19.02;;;;;;;2.89;88.34;96703.47;2626525;28;20044;-78
2022/03/31 03:55:41;;;;;;;38.40;19.15;;;;;;;2.88;88.22;96695.75;2626967;28;20637;-78
2022/03/31 03:56:57;;;;;;;38.72;18.45;;;;;;;2.89;88.27;96700.88;2627424;28;20079;-78
2022/03/31 03:58:13;;;;;;;39.30;18.48;;;;;;;2.92;87.92;96699.97;2627507;28;20452;-78
2022/03/31 03:59:29;;;;;;;35.40;18.98;;;;;;;2.93;88.03;96699.94;2626773;28;20048;-78
2022/03/31 04:00:44;;;;;;;36.10;18.17;;;;;;;2.93;88.27;96697.34;2626751;28;20044;-78
2022/03/31 04:02:01;;;;;;;36.70;19.13;;;;;;;2.96;88.36;96704.16;2627267;28;20059;-78
2022/03/31 04:03:17;;;;;;;33.08;17.95;;;;;;;2.93;88.01;96697.34;2626424;28;20070;-78
2022/03/31 04:04:33;;;;;;;36.47;18.02;;;;;;;2.90;87.60;96705.16;2627085;28;20101;-77
2022/03/31 04:05:50;;;;;;;32.92;17.83;;;;;;;2.89;87.78;96700.88;2626901;28;20093;-77
2022/03/31 04:07:05;;;;;;;33.83;18.13;;;;;;;2.90;87.98;96702.56;2627258;28;20664;-77
2022/03/31 04:08:23;;;;;;;30.77;16.35;;;;;;;2.90;87.76;96701.72;2579403;28;1322243;-79
2022/03/31 04:09:39;;;;;;;34.10;17.83;;;;;;;2.86;88.00;96694.94;2627953;28;20498;-79
2022/03/31 04:10:54;;;;;;;34.50;17.23;;;;;;;2.88;88.15;96698.34;2626978;28;20514;-78
2022/03/31 04:12:10;;;;;;;30.20;15.85;;;;;;;2.87;87.95;96694.06;2626962;28;20048;-82
2022/03/31 04:13:26;;;;;;;32.97;16.20;;;;;;;2.86;88.15;96695.78;2627674;28;20059;-77
2022/03/31 04:14:41;;;;;;;34.53;18.45;;;;;;;2.87;87.81;96697.47;2627695;28;20414;-77
2022/03/31 04:15:57;;;;;;;33.60;17.90;;;;;;;2.85;88.06;96696.69;2626913;28;20040;-76
2022/03/31 04:17:12;;;;;;;33.20;16.52;;;;;;;2.83;87.77;96698.47;2627758;28;20047;-77
2022/03/31 04:18:28;;;;;;;33.50;17.83;;;;;;;2.83;87.86;96698.47;2627669;28;20064;-77
2022/03/31 04:19:44;;;;;;;35.88;17.48;;;;;;;2.82;88.11;96707.09;2627367;28;20048;-80
2022/03/31 04:21:02;;;;;;;37.55;17.60;;;;;;;2.90;87.76;96697.41;2627432;28;20051;-78
2022/03/31 04:22:17;;;;;;;34.80;17.42;;;;;;;2.90;87.48;96704.31;2628171;28;20051;-77
2022/03/31 04:23:34;;;;;;;32.55;17.85;;;;;;;2.88;87.87;96704.34;2627325;28;20063;-77
2022/03/31 04:24:49;;;;;;;31.80;16.13;;;;;;;2.86;87.80;96702.69;2626964;28;20047;-77
2022/03/31 04:26:05;;;;;;;36.40;17.70;;;;;;;2.82;88.12;96702.75;2627607;28;20051;-77
2022/03/31 04:27:20;;;;;;;36.72;18.15;;;;;;;2.83;87.83;96701.88;2626619;28;20131;-78
2022/03/31 04:28:36;;;;;;;33.75;18.00;;;;;;;2.85;87.93;96700.97;2627522;28;20048;-78
2022/03/31 04:29:51;;;;;;;34.35;17.00;;;;;;;2.83;88.14;96701.03;2627034;28;20093;-78
2022/03/31 04:31:07;;;;;;;35.05;17.05;;;;;;;2.83;88.09;96704.47;2626697;28;20086;-78
2022/03/31 04:32:22;;;;;;;36.67;17.42;;;;;;;2.85;88.17;96704.44;2627733;28;20044;-78
2022/03/31 04:33:38;;;;;;;33.72;17.50;;;;;;;2.88;88.45;96703.50;2626556;28;20101;-78
2022/03/31 04:34:54;;;;;;;34.80;17.60;;;;;;;2.95;88.36;96702.47;2627506;28;20047;-78
2022/03/31 04:36:09;;;;;;;32.33;16.75;;;;;;;3.02;87.36;96704.00;2627278;28;20083;-78
2022/03/31 04:37:25;;;;;;;31.48;16.25;;;;;;;3.07;87.62;96706.44;2627252;28;20059;-79
2022/03/31 04:38:41;;;;;;;32.63;18.00;;;;;;;3.05;87.56;96701.34;2627215;28;20051;-79
2022/03/31 04:39:56;;;;;;;30.17;16.27;;;;;;;3.08;87.39;96711.59;2627562;28;20050;-79
2022/03/31 04:41:12;;;;;;;27.17;14.82;;;;;;;3.11;86.80;96716.69;2627000;28;20051;-79
2022/03/31 04:42:28;;;;;;;27.30;15.13;;;;;;;3.09;87.09;96715.03;2626765;28;20052;-78
2022/03/31 04:43:44;;;;;;;29.55;15.43;;;;;;;3.04;87.10;96714.28;2627122;28;20426;-78
2022/03/31 04:45:02;;;;;;;27.90;15.50;;;;;;;3.03;87.34;96717.78;2627188;28;20052;-78
2022/03/31 04:46:18;;;;;;;28.55;14.82;;;;;;;3.01;86.69;96714.38;2626329;28;20063;-78
2022/03/31 04:47:34;;;;;;;28.15;15.15;;;;;;;3.04;86.61;96716.88;2627337;28;20044;-79
2022/03/31 04:48:50;;;;;;;27.70;15.07;;;;;;;3.06;86.25;96713.38;2627032;28;20056;-79
2022/03/31 04:50:05;;;;;;;27.95;15.30;;;;;;;3.07;86.65;96721.97;2626932;28;20071;-78
2022/03/31 04:51:21;;;;;;;27.63;14.65;;;;;;;3.09;86.69;96715.88;2627316;28;20044;-78
2022/03/31 04:52:37;;;;;;;27.38;15.18;;;;;;;3.11;86.67;96706.34;2626469;28;20036;-78
2022/03/31 04:53:52;;;;;;;25.65;13.48;;;;;;;3.12;86.52;96712.38;2627411;28;20133;-78
2022/03/31 04:55:09;;;;;;;28.40;14.80;;;;;;;3.15;86.74;96709.69;2626413;28;20048;-78
2022/03/31 04:56:24;;;;;;;27.65;14.35;;;;;;;3.18;86.49;96711.38;2626571;28;20044;-78
2022/03/31 04:57:40;;;;;;;25.63;13.57;;;;;;;3.17;87.08;96713.09;2626495;28;20074;-79
2022/03/31 04:58:56;;;;;;;23.23;13.35;;;;;;;3.16;87.18;96710.56;2626404;28;20094;-78
2022/03/31 05:00:12;;;;;;;23.70;14.18;;;;;;;3.13;87.18;96708.88;2626224;28;20054;-78
2022/03/31 05:01:28;;;;;;;25.55;14.35;;;;;;;3.10;87.09;96702.06;2623126;28;20087;-78
2022/03/31 05:02:43;;;;;;;25.83;14.18;;;;;;;3.11;86.61;96708.09;2625822;28;20048;-78
2022/03/31 05:03:59;;;;;;;26.50;13.85;;;;;;;3.08;86.98;96697.84;2626513;28;20616;-78
2022/03/31 05:05:15;;;;;;;27.25;14.55;;;;;;;3.02;87.34;96692.81;2627184;28;20048;-79
2022/03/31 05:06:31;;;;;;;25.95;14.40;;;;;;;3.02;87.42;96695.38;2626732;28;20066;-78
2022/03/31 05:07:46;;;;;;;24.52;13.65;;;;;;;3.05;87.65;96693.59;2627235;28;20052;-78
2022/03/31 05:09:03;;;;;;;22.08;12.57;;;;;;;3.10;86.92;96688.28;2627342;28;20158;-78
2022/03/31 05:10:19;;;;;;;20.23;12.18;;;;;;;3.05;86.48;96688.41;2626490;28;20133;-77
2022/03/31 05:11:34;;;;;;;20.42;12.38;;;;;;;3.06;86.94;96695.28;2627127;28;20483;-78
2022/03/31 05:12:50;;;;;;;21.63;11.38;;;;;;;3.08;86.43;96692.66;2627109;28;20047;-78
2022/03/31 05:14:05;;;;;;;19.27;11.40;;;;;;;3.11;86.58;96677.88;2627187;28;20181;-78
2022/03/31 05:15:21;;;;;;;20.98;11.75;;;;;;;3.12;86.55;96681.34;2627444;28;20044;-77
2022/03/31 05:16:37;;;;;;;19.17;11.32;;;;;;;3.13;86.15;96680.44;2626655;28;20044;-78
2022/03/31 05:17:52;;;;;;;17.40;10.80;;;;;;;3.12;85.95;96676.16;2626936;28;20058;-77
2022/03/31 05:19:08;;;;;;;21.67;11.55;;;;;;;3.13;86.69;96677.88;2627276;28;20048;-79
2022/03/31 05:20:25;;;;;;;17.48;10.65;;;;;;;3.16;86.24;96677.78;2624840;28;20051;-78
2022/03/31 05:21:41;;;;;;;18.73;10.98;;;;;;;3.07;86.20;96678.88;2625822;28;20048;-78
2022/03/31 05:22:57;;;;;;;18.33;10.77;;;;;;;3.05;86.75;96680.66;2627066;28;20051;-78
2022/03/31 05:24:13;;;;;;;22.35;12.45;;;;;;;3.05;87.22;96685.81;2626571;28;20697;-77
2022/03/31 05:25:28;;;;;;;19.27;11.85;;;;;;;3.08;87.11;96690.06;2626601;28;20048;-78
2022/03/31 05:26:45;;;;;;;18.77;11.00;;;;;;;3.09;87.19;96699.53;2626740;28;20052;-78
2022/03/31 05:28:01;;;;;;;18.58;11.40;;;;;;;3.07;86.99;96703.88;2627079;28;20062;-78
2022/03/31 05:29:18;;;;;;;20.63;12.07;;;;;;;3.08;87.22;96700.41;2626692;28;20790;-79
2022/03/31 05:30:34;;;;;;;21.90;12.05;;;;;;;3.07;87.15;96706.44;2626964;28;20551;-78
2022/03/31 05:31:50;;;;;;;19.73;11.52;;;;;;;3.07;87.11;96702.13;2626519;28;20180;-78
2022/03/31 05:33:08;;;;;;;22.63;11.55;;;;;;;3.15;86.95;96691.59;2626864;28;20130;-78
2022/03/31 05:34:23;;;;;;;19.52;11.38;;;;;;;3.10;86.39;96690.88;2626458;28;20499;-78
2022/03/31 05:35:39;;;;;;;18.17;11.50;;;;;;;3.10;86.54;96688.28;2626764;28;20093;-78
2022/03/31 05:36:55;;;;;;;17.67;10.50;;;;;;;3.07;86.45;96681.47;2627209;28;20502;-78
2022/03/31 05:38:10;;;;;;;20.75;11.93;;;;;;;3.04;86.35;96675.50;2626837;28;20055;-78
2022/03/31 05:39:26;;;;;;;20.05;11.52;;;;;;;3.10;86.69;96672.78;2627094;28;20101;-78
2022/03/31 05:40:42;;;;;;;16.08;10.55;;;;;;;3.19;86.68;96677.69;2625927;28;20187;-78
2022/03/31 05:41:58;;;;;;;18.27;11.02;;;;;;;3.17;86.19;96686.41;2627285;28;20055;-78
2022/03/31 05:43:13;;;;;;;18.55;11.27;;;;;;;3.21;86.15;96699.22;2626845;28;20056;-78
2022/03/31 05:44:30;;;;;;;17.73;11.27;;;;;;;3.22;86.40;96702.63;2627157;28;20044;-78
2022/03/31 05:45:45;;;;;;;16.08;10.23;;;;;;;3.27;86.25;96697.34;2626628;28;20358;-78
2022/03/31 05:47:01;;;;;;;16.95;10.48;;;;;;;3.27;85.86;96702.50;2626717;28;20051;-78
2022/03/31 05:48:17;;;;;;;15.45;9.52;;;;;;;3.20;85.76;96705.25;2626229;28;20047;-79
2022/03/31 05:49:33;;;;;;;17.05;10.15;;;;;;;3.16;86.02;96698.47;2626532;28;20079;-79
2022/03/31 05:50:48;;;;;;;16.92;9.18;;;;;;;3.16;85.97;96703.63;2626762;28;20203;-79
2022/03/31 05:52:04;;;;;;;15.63;9.20;;;;;;;3.20;86.23;96700.06;2627237;28;20055;-80
2022/03/31 05:53:20;;;;;;;17.13;9.13;;;;;;;3.27;85.14;96699.91;2626317;28;20055;-81
2022/03/31 05:54:36;;;;;;;12.30;8.15;;;;;;;3.22;85.43;96706.06;2626919;28;20087;-81
2022/03/31 05:55:52;;;;;;;14.65;8.13;;;;;;;3.29;84.61;96704.19;2626215;28;20078;-80
2022/03/31 05:57:08;;;;;;;14.95;8.70;;;;;;;3.36;84.75;96708.28;2626833;28;20491;-81